createdAt,value
2017-08-30T00:00:41.129Z,71.98
2017-08-30T00:03:08.722Z,72.18
2017-08-30T00:05:36.285Z,72.08
2017-08-30T00:08:04.023Z,71.72
2017-08-30T00:10:31.548Z,72.00
2017-08-30T00:12:59.315Z,71.59
2017-08-30T00:15:26.900Z,71.63
2017-08-30T00:17:54.494Z,72.44
2017-08-30T00:20:22.857Z,72.10
2017-08-30T00:22:50.429Z,72.38
2017-08-30T00:25:31.029Z,72.71
2017-08-30T00:27:58.821Z,72.93
2017-08-30T00:30:26.432Z,72.62
2017-08-30T00:32:54.219Z,73.05
2017-08-30T00:35:21.897Z,73.11
2017-08-30T00:37:49.444Z,73.27
2017-08-30T00:40:17.244Z,72.91
2017-08-30T00:42:44.778Z,72.59
2017-08-30T00:45:12.341Z,72.71
2017-08-30T00:47:40.196Z,73.14
2017-08-30T00:50:07.795Z,73.07
2017-08-30T00:52:35.370Z,72.97
2017-08-30T00:55:03.285Z,72.92
2017-08-30T00:57:30.843Z,72.40
2017-08-30T00:59:58.414Z,73.03
2017-08-30T01:02:25.975Z,73.70
2017-08-30T01:04:53.519Z,73.11
2017-08-30T01:07:23.722Z,72.90
2017-08-30T01:09:51.315Z,73.69
2017-08-30T01:12:19.082Z,73.97
2017-08-30T01:14:46.608Z,73.72
2017-08-30T01:17:14.415Z,73.51
2017-08-30T01:19:42.007Z,74.13
2017-08-30T01:22:09.585Z,74.02
2017-08-30T01:24:37.142Z,74.12
2017-08-30T01:27:04.706Z,74.29
2017-08-30T01:29:32.456Z,74.30
2017-08-30T01:32:00.228Z,74.10
2017-08-30T01:34:28.019Z,73.60
2017-08-30T01:36:55.538Z,73.77
2017-08-30T01:39:23.320Z,73.77
2017-08-30T01:41:50.912Z,73.87
2017-08-30T01:44:18.495Z,73.85
2017-08-30T01:46:46.071Z,74.03
2017-08-30T01:49:13.605Z,74.53
2017-08-30T01:51:41.139Z,74.87
2017-08-30T01:54:08.718Z,74.86
2017-08-30T01:56:36.381Z,74.54
2017-08-30T01:59:03.950Z,74.53
2017-08-30T02:01:31.503Z,75.23
2017-08-30T02:03:59.366Z,75.03
2017-08-30T02:06:26.881Z,74.90
2017-08-30T02:08:54.624Z,74.74
2017-08-30T02:11:22.369Z,75.00
2017-08-30T02:13:49.983Z,74.87
2017-08-30T02:16:17.599Z,74.97
2017-08-30T02:18:45.181Z,74.50
2017-08-30T02:21:12.756Z,74.30
2017-08-30T02:23:40.355Z,74.75
2017-08-30T02:26:07.912Z,74.21
2017-08-30T02:28:35.433Z,73.88
2017-08-30T02:31:03.129Z,73.55
2017-08-30T02:33:30.886Z,73.64
2017-08-30T02:35:59.828Z,73.48
2017-08-30T02:38:27.427Z,73.62
2017-08-30T02:40:55.187Z,74.20
2017-08-30T02:43:22.732Z,74.13
2017-08-30T02:45:50.333Z,74.50
2017-08-30T02:48:17.850Z,74.99
2017-08-30T02:50:45.414Z,74.62
2017-08-30T02:53:13.049Z,74.91
2017-08-30T02:55:40.574Z,74.86
2017-08-30T02:58:08.432Z,74.80
2017-08-30T03:00:35.996Z,74.40
2017-08-30T03:03:03.522Z,74.03
2017-08-30T03:05:31.108Z,74.03
2017-08-30T03:07:58.674Z,73.97
2017-08-30T03:10:26.237Z,73.31
2017-08-30T03:12:53.749Z,73.47
2017-08-30T03:15:21.603Z,73.55
2017-08-30T03:17:49.125Z,73.42
2017-08-30T03:20:16.887Z,73.21
2017-08-30T03:22:44.466Z,73.69
2017-08-30T03:25:11.988Z,74.37
2017-08-30T03:27:39.558Z,75.08
2017-08-30T03:30:07.420Z,74.95
2017-08-30T03:32:34.943Z,75.60
2017-08-30T03:35:02.459Z,75.93
2017-08-30T03:37:30.116Z,75.34
2017-08-30T03:39:57.960Z,74.89
2017-08-30T03:42:25.510Z,74.84
2017-08-30T03:44:53.400Z,74.91
2017-08-30T03:47:20.950Z,74.94
2017-08-30T03:49:48.821Z,74.91
2017-08-30T03:52:16.388Z,74.63
2017-08-30T03:54:43.905Z,74.54
2017-08-30T03:57:12.181Z,74.04
2017-08-30T03:59:39.739Z,73.84
2017-08-30T04:02:07.337Z,73.69
2017-08-30T04:04:34.865Z,73.97
2017-08-30T04:07:02.423Z,73.95
2017-08-30T04:09:29.993Z,73.47
2017-08-30T04:11:57.515Z,74.00
2017-08-30T04:14:25.272Z,74.59
2017-08-30T04:16:52.840Z,74.40
2017-08-30T04:19:20.370Z,74.13
2017-08-30T04:21:47.914Z,74.10
2017-08-30T04:24:15.515Z,74.14
2017-08-30T04:26:43.061Z,74.25
2017-08-30T04:29:10.869Z,75.46
2017-08-30T04:31:38.455Z,75.12
2017-08-30T04:34:06.223Z,74.34
2017-08-30T04:36:33.771Z,73.96
2017-08-30T04:39:01.469Z,72.70
2017-08-30T04:41:29.066Z,72.69
2017-08-30T04:44:13.350Z,71.51
2017-08-30T04:46:40.976Z,70.65
2017-08-30T04:49:08.561Z,68.84
2017-08-30T04:51:36.329Z,68.32
2017-08-30T04:54:04.181Z,68.64
2017-08-30T04:56:31.727Z,67.67
2017-08-30T04:58:59.278Z,66.93
2017-08-30T05:01:26.840Z,66.73
2017-08-30T05:03:54.382Z,66.89
2017-08-30T05:06:21.977Z,67.41
2017-08-30T05:08:49.600Z,67.39
2017-08-30T05:11:17.204Z,67.10
2017-08-30T05:13:44.764Z,65.33
2017-08-30T05:16:12.363Z,63.38
2017-08-30T05:18:39.977Z,63.17
2017-08-30T05:21:07.523Z,64.37
2017-08-30T05:23:35.127Z,62.45
2017-08-30T05:26:02.691Z,61.89
2017-08-30T05:28:30.256Z,60.84
2017-08-30T05:30:58.190Z,60.79
2017-08-30T05:33:25.740Z,59.31
2017-08-30T05:35:53.285Z,59.06
2017-08-30T05:38:20.889Z,58.44
2017-08-30T05:40:48.421Z,57.75
2017-08-30T05:43:15.949Z,57.32
2017-08-30T05:45:43.655Z,56.72
2017-08-30T05:48:11.201Z,56.40
2017-08-30T05:50:38.751Z,57.33
2017-08-30T05:53:06.320Z,57.54
2017-08-30T05:55:33.871Z,56.57
2017-08-30T05:58:01.428Z,56.78
2017-08-30T06:00:28.987Z,55.96
2017-08-30T06:02:56.560Z,56.44
2017-08-30T06:05:24.381Z,55.98
2017-08-30T06:07:51.966Z,54.90
2017-08-30T06:10:19.555Z,52.70
2017-08-30T06:12:47.086Z,52.82
2017-08-30T06:15:14.646Z,52.31
2017-08-30T06:17:42.194Z,52.96
2017-08-30T06:20:09.748Z,50.83
2017-08-30T06:22:37.328Z,49.61
2017-08-30T06:25:04.859Z,49.94
2017-08-30T06:27:32.462Z,48.86
2017-08-30T06:30:00.015Z,48.23
2017-08-30T06:32:27.618Z,46.66
2017-08-30T06:34:55.165Z,47.65
2017-08-30T06:37:22.770Z,48.85
2017-08-30T06:39:50.364Z,48.53
2017-08-30T06:42:17.900Z,49.01
2017-08-30T06:44:45.583Z,48.85
2017-08-30T06:47:13.194Z,46.88
2017-08-30T06:49:40.963Z,45.46
2017-08-30T06:52:08.544Z,47.37
2017-08-30T06:54:36.147Z,47.41
2017-08-30T06:57:03.703Z,45.79
2017-08-30T06:59:31.450Z,46.78
2017-08-30T07:01:59.186Z,46.85
2017-08-30T07:04:26.707Z,44.80
2017-08-30T07:06:54.236Z,45.30
2017-08-30T07:09:21.885Z,44.63
2017-08-30T07:11:49.404Z,43.78
2017-08-30T07:14:17.138Z,43.20
2017-08-30T07:16:44.728Z,42.14
2017-08-30T07:19:12.317Z,42.79
2017-08-30T07:21:39.994Z,42.84
2017-08-30T07:24:07.566Z,43.75
2017-08-30T07:26:35.241Z,42.73
2017-08-30T07:29:02.794Z,42.66
2017-08-30T07:31:30.459Z,42.98
2017-08-30T07:33:58.122Z,41.61
2017-08-30T07:36:25.696Z,42.00
2017-08-30T07:38:53.321Z,39.86
2017-08-30T07:41:20.874Z,41.11
2017-08-30T07:43:48.489Z,40.77
2017-08-30T07:46:16.201Z,39.98
2017-08-30T07:48:43.803Z,40.67
2017-08-30T07:51:12.142Z,36.56
2017-08-30T07:53:40.347Z,37.59
2017-08-30T07:56:07.951Z,37.94
2017-08-30T07:58:35.547Z,38.08
2017-08-30T08:01:03.178Z,38.36
2017-08-30T08:03:30.801Z,37.34
2017-08-30T08:05:58.360Z,39.49
2017-08-30T08:08:26.377Z,38.73
2017-08-30T08:10:54.130Z,38.09
2017-08-30T08:13:22.390Z,37.40
2017-08-30T08:15:50.015Z,36.58
2017-08-30T08:18:17.524Z,36.88
2017-08-30T08:20:45.362Z,36.69
2017-08-30T08:23:12.987Z,34.93
2017-08-30T08:25:40.536Z,34.52
2017-08-30T08:28:11.090Z,34.95
2017-08-30T08:30:38.720Z,34.48
2017-08-30T08:33:06.290Z,33.39
2017-08-30T08:35:33.847Z,32.38
2017-08-30T08:38:01.434Z,32.75
2017-08-30T08:40:28.986Z,32.64
2017-08-30T08:42:56.636Z,33.20
2017-08-30T08:45:24.229Z,32.87
2017-08-30T08:47:51.814Z,32.25
2017-08-30T08:50:19.436Z,32.63
2017-08-30T08:52:47.006Z,32.33
2017-08-30T08:55:14.947Z,32.59
2017-08-30T08:57:42.790Z,33.95
2017-08-30T09:00:10.567Z,33.92
2017-08-30T09:02:38.132Z,33.32
2017-08-30T09:05:05.725Z,34.06
2017-08-30T09:07:33.301Z,34.21
2017-08-30T09:10:01.057Z,33.86
2017-08-30T09:12:28.627Z,33.19
2017-08-30T09:14:56.229Z,32.40
2017-08-30T09:17:23.750Z,33.46
2017-08-30T09:19:51.302Z,32.45
2017-08-30T09:22:18.892Z,31.98
2017-08-30T09:24:46.416Z,31.79
2017-08-30T09:27:14.066Z,32.55
2017-08-30T09:29:41.711Z,31.09
2017-08-30T09:32:09.261Z,31.35
2017-08-30T09:34:36.859Z,32.23
2017-08-30T09:37:04.421Z,32.36
2017-08-30T09:39:32.033Z,32.48
2017-08-30T09:41:59.830Z,31.87
2017-08-30T09:44:27.361Z,32.04
2017-08-30T09:46:55.180Z,33.06
2017-08-30T09:49:22.713Z,31.59
2017-08-30T09:51:51.481Z,31.01
2017-08-30T09:54:19.142Z,30.14
2017-08-30T09:56:47.591Z,29.50
2017-08-30T09:59:15.341Z,28.64
2017-08-30T10:01:44.165Z,28.32
2017-08-30T10:04:11.668Z,28.52
2017-08-30T10:06:39.254Z,27.62
2017-08-30T10:09:06.852Z,28.62
2017-08-30T10:11:34.458Z,30.62
2017-08-30T10:14:02.243Z,30.26
2017-08-30T10:16:31.920Z,30.14
2017-08-30T10:19:02.732Z,29.85
2017-08-30T10:21:31.432Z,28.89
2017-08-30T10:23:58.992Z,28.45
2017-08-30T10:26:27.542Z,27.59
2017-08-30T10:28:55.140Z,28.19
2017-08-30T10:31:22.756Z,27.65
2017-08-30T10:33:50.398Z,27.37
2017-08-30T10:36:18.131Z,27.56
2017-08-30T10:38:46.614Z,27.53
2017-08-30T10:41:14.932Z,27.49
2017-08-30T10:43:42.556Z,27.61
2017-08-30T10:46:10.866Z,27.84
2017-08-30T10:48:39.181Z,27.08
2017-08-30T10:51:06.806Z,26.90
2017-08-30T10:53:34.391Z,26.02
2017-08-30T10:56:02.126Z,27.40
2017-08-30T10:58:29.716Z,27.61
2017-08-30T11:00:57.314Z,27.38
2017-08-30T11:03:25.121Z,27.80
2017-08-30T11:05:52.762Z,27.31
2017-08-30T11:08:20.354Z,27.57
2017-08-30T11:10:47.906Z,27.47
2017-08-30T11:13:15.457Z,27.91
2017-08-30T11:15:45.539Z,26.58
2017-08-30T11:18:13.296Z,26.63
2017-08-30T11:20:40.857Z,25.48
2017-08-30T11:23:08.465Z,25.90
2017-08-30T11:25:36.198Z,26.13
2017-08-30T11:28:03.955Z,24.94
2017-08-30T11:30:31.924Z,25.34
2017-08-30T11:32:59.667Z,24.71
2017-08-30T11:35:27.450Z,23.63
2017-08-30T11:38:01.006Z,23.74
2017-08-30T11:40:29.750Z,24.28
2017-08-30T11:42:58.590Z,24.15
2017-08-30T11:45:26.137Z,25.23
2017-08-30T11:47:53.844Z,26.01
2017-08-30T11:50:21.517Z,26.20
2017-08-30T11:52:49.175Z,26.28
2017-08-30T11:55:16.923Z,25.21
2017-08-30T11:57:44.538Z,26.26
2017-08-30T12:00:12.208Z,25.61
2017-08-30T12:02:39.735Z,25.87
2017-08-30T12:05:07.316Z,25.82
2017-08-30T12:07:39.317Z,25.29
2017-08-30T12:10:06.857Z,24.31
2017-08-30T12:12:35.287Z,25.01
2017-08-30T12:15:03.501Z,25.68
2017-08-30T12:17:31.193Z,26.50
2017-08-30T12:19:58.773Z,26.40
2017-08-30T12:22:26.368Z,26.30
2017-08-30T12:24:54.840Z,25.33
2017-08-30T12:27:22.843Z,24.98
2017-08-30T12:29:50.444Z,24.48
2017-08-30T12:32:18.269Z,24.21
2017-08-30T12:34:45.883Z,24.39
2017-08-30T12:37:18.994Z,23.66
2017-08-30T12:39:46.548Z,24.64
2017-08-30T12:42:14.191Z,24.71
2017-08-30T12:44:42.662Z,24.89
2017-08-30T12:47:10.308Z,25.41
2017-08-30T12:49:37.897Z,25.90
2017-08-30T12:52:05.847Z,26.19
2017-08-30T12:54:33.780Z,26.23
2017-08-30T12:57:01.405Z,25.99
2017-08-30T12:59:29.013Z,26.20
2017-08-30T13:01:56.794Z,25.92
2017-08-30T13:04:24.602Z,25.95
2017-08-30T13:06:52.377Z,25.83
2017-08-30T13:09:20.372Z,25.45
2017-08-30T13:11:47.925Z,24.95
2017-08-30T13:14:16.755Z,25.10
2017-08-30T13:16:44.381Z,24.71
2017-08-30T13:19:12.805Z,24.77
2017-08-30T13:21:40.356Z,25.12
2017-08-30T13:24:08.095Z,25.58
2017-08-30T13:26:36.975Z,25.26
2017-08-30T13:29:04.611Z,25.28
2017-08-30T13:31:32.454Z,25.81
2017-08-30T13:34:00.212Z,25.80
2017-08-30T13:36:27.870Z,26.22
2017-08-30T13:38:56.701Z,26.16
2017-08-30T13:41:24.285Z,25.15
2017-08-30T13:43:51.883Z,25.65
2017-08-30T13:46:19.546Z,26.01
2017-08-30T13:48:47.352Z,25.90
2017-08-30T13:51:14.945Z,26.02
2017-08-30T13:53:42.553Z,26.32
2017-08-30T13:56:10.231Z,26.31
2017-08-30T13:58:37.817Z,26.56
2017-08-30T14:01:05.437Z,26.62
2017-08-30T14:03:33.068Z,26.40
2017-08-30T14:06:00.624Z,25.84
2017-08-30T14:08:28.198Z,25.97
2017-08-30T14:10:56.682Z,26.14
2017-08-30T14:13:24.307Z,26.15
2017-08-30T14:15:51.980Z,26.25
2017-08-30T14:18:19.616Z,26.56
2017-08-30T14:20:47.196Z,26.49
2017-08-30T14:23:19.601Z,26.20
2017-08-30T14:25:50.665Z,26.21
2017-08-30T14:28:21.515Z,25.87
2017-08-30T14:30:49.804Z,26.52
2017-08-30T14:33:17.417Z,26.34
2017-08-30T14:35:45.121Z,27.05
2017-08-30T14:38:12.729Z,26.91
2017-08-30T14:40:40.315Z,26.18
2017-08-30T14:43:08.054Z,26.56
2017-08-30T14:45:35.601Z,26.44
2017-08-30T14:48:03.148Z,26.78
2017-08-30T14:50:30.763Z,27.14
2017-08-30T14:52:58.700Z,26.97
2017-08-30T14:55:26.729Z,36.15
2017-08-30T14:57:55.598Z,36.96
2017-08-30T15:00:23.201Z,34.60
2017-08-30T15:02:51.601Z,36.35
2017-08-30T15:05:21.744Z,32.34
2017-08-30T15:07:49.387Z,35.00
2017-08-30T15:10:16.940Z,32.32
2017-08-30T15:12:44.489Z,32.40
2017-08-30T15:15:12.232Z,35.03
2017-08-30T15:17:39.815Z,32.50
2017-08-30T15:20:07.407Z,27.19
2017-08-30T15:22:35.023Z,27.75
2017-08-30T15:25:02.579Z,28.26
2017-08-30T15:27:30.118Z,31.78
2017-08-30T15:29:57.790Z,28.65
2017-08-30T15:32:25.391Z,28.08
2017-08-30T15:34:52.940Z,28.41
2017-08-30T15:37:20.492Z,29.66
2017-08-30T15:39:48.111Z,30.90
2017-08-30T15:42:15.691Z,30.88
2017-08-30T15:44:43.435Z,30.05
2017-08-30T15:47:11.478Z,31.18
2017-08-30T15:49:39.082Z,30.38
2017-08-30T15:52:06.835Z,30.56
2017-08-30T15:54:34.647Z,31.12
2017-08-30T15:57:02.460Z,30.43
2017-08-30T15:59:31.796Z,30.78
2017-08-30T16:02:00.840Z,30.77
2017-08-30T16:04:30.157Z,30.70
2017-08-30T16:06:59.443Z,32.42
2017-08-30T16:09:27.031Z,32.49
2017-08-30T16:11:54.600Z,32.21
2017-08-30T16:14:22.202Z,31.13
2017-08-30T16:16:49.965Z,33.09
2017-08-30T16:19:17.567Z,31.72
2017-08-30T16:22:33.964Z,33.63
2017-08-30T16:25:01.868Z,33.39
2017-08-30T16:27:29.422Z,32.51
2017-08-30T16:29:57.767Z,32.86
2017-08-30T16:32:25.347Z,32.39
2017-08-30T16:34:52.897Z,35.46
2017-08-30T16:37:20.465Z,34.25
2017-08-30T16:39:49.541Z,34.76
2017-08-30T16:42:17.152Z,36.04
2017-08-30T16:44:44.757Z,36.08
2017-08-30T16:47:16.707Z,34.70
2017-08-30T16:49:44.363Z,33.84
2017-08-30T16:52:11.960Z,33.48
2017-08-30T16:54:39.638Z,33.23
2017-08-30T16:57:07.246Z,36.61
2017-08-30T16:59:34.956Z,32.17
2017-08-30T17:02:02.598Z,33.08
2017-08-30T17:04:35.263Z,33.18
2017-08-30T17:07:03.527Z,33.60
2017-08-30T17:09:31.976Z,33.92
2017-08-30T17:12:00.283Z,34.12
2017-08-30T17:14:28.681Z,34.63
2017-08-30T17:16:56.646Z,34.59
2017-08-30T17:19:24.253Z,34.74
2017-08-30T17:21:51.853Z,35.05
2017-08-30T17:24:19.549Z,35.27
2017-08-30T17:26:47.526Z,35.18
2017-08-30T17:29:15.147Z,35.13
2017-08-30T17:31:42.693Z,35.01
2017-08-30T17:34:10.445Z,35.95
2017-08-30T17:36:38.182Z,35.58
2017-08-30T17:39:05.775Z,36.18
2017-08-30T17:41:33.351Z,36.04
2017-08-30T17:44:00.912Z,35.09
2017-08-30T17:46:28.585Z,35.17
2017-08-30T17:48:56.289Z,35.19
2017-08-30T17:51:24.526Z,35.52
2017-08-30T17:53:52.198Z,35.85
2017-08-30T17:56:19.881Z,36.53
2017-08-30T17:58:47.775Z,36.65
2017-08-30T18:01:15.487Z,37.55
2017-08-30T18:03:43.535Z,37.81
2017-08-30T18:06:11.184Z,39.25
2017-08-30T18:08:39.824Z,39.45
2017-08-30T18:11:08.245Z,36.73
2017-08-30T18:13:35.829Z,37.97
2017-08-30T18:16:04.634Z,36.54
2017-08-30T18:18:32.274Z,37.35
2017-08-30T18:20:59.845Z,37.68
2017-08-30T18:23:34.365Z,37.69
2017-08-30T18:26:01.889Z,38.21
2017-08-30T18:28:29.452Z,38.87
2017-08-30T18:30:57.387Z,39.22
2017-08-30T18:33:25.075Z,39.10
2017-08-30T18:35:52.680Z,39.51
2017-08-30T18:38:20.225Z,39.77
2017-08-30T18:40:47.773Z,39.78
2017-08-30T18:43:15.340Z,39.91
2017-08-30T18:45:42.939Z,40.28
2017-08-30T18:48:11.515Z,40.70
2017-08-30T18:50:39.141Z,41.01
2017-08-30T18:53:06.757Z,41.08
2017-08-30T18:55:34.604Z,41.18
2017-08-30T18:58:02.612Z,41.40
2017-08-30T19:00:30.719Z,41.63
2017-08-30T19:02:58.958Z,41.27
2017-08-30T19:05:27.291Z,41.21
2017-08-30T19:07:54.873Z,41.48
2017-08-30T19:10:22.446Z,41.35
2017-08-30T19:12:50.267Z,41.14
2017-08-30T19:15:18.023Z,41.09
2017-08-30T19:17:45.606Z,41.13
2017-08-30T19:20:15.482Z,41.07
2017-08-30T19:22:43.138Z,41.10
2017-08-30T19:25:10.723Z,41.14
2017-08-30T19:27:42.345Z,41.30
2017-08-30T19:30:11.033Z,41.84
2017-08-30T19:32:41.557Z,41.47
2017-08-30T19:35:09.133Z,41.60
2017-08-30T19:37:36.698Z,41.36
2017-08-30T19:40:04.375Z,41.50
2017-08-30T19:42:31.897Z,41.60
2017-08-30T19:44:59.455Z,42.00
2017-08-30T19:47:27.041Z,42.04
2017-08-30T19:49:54.587Z,42.73
2017-08-30T19:52:22.600Z,43.28
2017-08-30T19:54:50.200Z,43.46
2017-08-30T19:57:17.780Z,43.77
2017-08-30T19:59:46.355Z,43.83
2017-08-30T20:02:14.013Z,44.19
2017-08-30T20:04:41.667Z,44.47
2017-08-30T20:07:09.512Z,45.36
2017-08-30T20:09:37.094Z,45.30
2017-08-30T20:12:04.670Z,45.81
2017-08-30T20:14:32.227Z,46.24
2017-08-30T20:16:59.823Z,46.13
2017-08-30T20:19:27.890Z,45.99
2017-08-30T20:21:55.485Z,46.42
2017-08-30T20:24:23.101Z,46.74
2017-08-30T20:26:50.681Z,46.50
2017-08-30T20:29:22.491Z,46.39
2017-08-30T20:31:50.099Z,46.54
2017-08-30T20:34:17.621Z,46.54
2017-08-30T20:37:02.432Z,46.85
2017-08-30T20:39:31.107Z,47.04
2017-08-30T20:41:58.717Z,47.34
2017-08-30T20:44:27.477Z,47.28
2017-08-30T20:46:55.056Z,47.70
2017-08-30T20:49:22.643Z,47.57
2017-08-30T20:51:50.226Z,47.52
2017-08-30T20:54:17.818Z,47.84
2017-08-30T20:56:46.165Z,47.70
2017-08-30T20:59:13.753Z,47.62
2017-08-30T21:01:41.293Z,48.00
2017-08-30T21:04:08.853Z,47.95
2017-08-30T21:06:36.606Z,48.22
2017-08-30T21:09:04.210Z,48.34
2017-08-30T21:11:31.779Z,48.25
2017-08-30T21:13:59.298Z,48.29
2017-08-30T21:16:26.875Z,48.52
2017-08-30T21:18:54.404Z,48.67
2017-08-30T21:21:23.267Z,48.69
2017-08-30T21:23:54.905Z,49.26
2017-08-30T21:26:22.419Z,49.31
2017-08-30T21:28:49.964Z,49.14
2017-08-30T21:31:17.582Z,49.18
2017-08-30T21:33:45.185Z,49.06
2017-08-30T21:36:12.732Z,49.27
2017-08-30T21:38:40.337Z,49.08
2017-08-30T21:41:07.903Z,48.93
2017-08-30T21:43:35.453Z,49.05
2017-08-30T21:46:03.041Z,49.44
2017-08-30T21:48:30.800Z,50.03
2017-08-30T21:50:58.343Z,50.26
2017-08-30T21:53:25.940Z,50.13
2017-08-30T21:55:53.484Z,50.68
2017-08-30T21:58:21.017Z,50.92
2017-08-30T22:00:48.611Z,50.91
2017-08-30T22:03:16.125Z,50.55
2017-08-30T22:05:43.662Z,50.47
2017-08-30T22:08:12.041Z,50.58
2017-08-30T22:10:39.809Z,50.61
2017-08-30T22:13:07.400Z,50.74
2017-08-30T22:15:35.032Z,50.83
2017-08-30T22:18:02.627Z,50.86
2017-08-30T22:20:30.201Z,51.08
2017-08-30T22:22:57.768Z,51.01
2017-08-30T22:25:25.301Z,50.83
2017-08-30T22:27:52.850Z,51.04
2017-08-30T22:30:20.457Z,51.24
2017-08-30T22:32:48.060Z,51.46
2017-08-30T22:35:15.618Z,51.45
2017-08-30T22:37:43.203Z,51.67
2017-08-30T22:40:10.951Z,51.65
2017-08-30T22:42:38.545Z,51.58
2017-08-30T22:45:06.119Z,51.87
2017-08-30T22:47:33.874Z,52.18
2017-08-30T22:50:01.772Z,52.23
2017-08-30T22:52:29.349Z,51.91
2017-08-30T22:54:56.873Z,52.15
2017-08-30T22:57:24.476Z,52.17
2017-08-30T22:59:52.719Z,52.35
2017-08-30T23:02:20.343Z,52.46
2017-08-30T23:04:47.886Z,52.89
2017-08-30T23:07:15.428Z,53.21
2017-08-30T23:09:43.000Z,53.51
2017-08-30T23:12:11.549Z,53.60
2017-08-30T23:14:39.060Z,53.38
2017-08-30T23:17:06.611Z,53.16
2017-08-30T23:19:34.156Z,53.19
2017-08-30T23:22:02.244Z,52.91
2017-08-30T23:24:30.056Z,52.95
2017-08-30T23:26:57.631Z,53.20
2017-08-30T23:29:25.203Z,53.17
2017-08-30T23:31:52.823Z,53.55
2017-08-30T23:34:20.369Z,53.93
2017-08-30T23:36:47.891Z,54.85
2017-08-30T23:39:15.479Z,55.18
2017-08-30T23:41:43.033Z,55.69
2017-08-30T23:44:10.647Z,56.13
2017-08-30T23:46:38.222Z,56.24
2017-08-30T23:49:05.749Z,56.26
2017-08-30T23:51:33.278Z,55.79
2017-08-30T23:54:00.833Z,55.83
2017-08-30T23:56:28.361Z,55.54
2017-08-30T23:58:55.888Z,55.76
